sensor_id;sensor_type;location;lat;lon;timestamp;temperature;humidity
73643;DHT22;61938;48.652;9.292;2023-04-28T00:00:26;10.10;99.90
73643;DHT22;61938;48.652;9.292;2023-04-28T00:02:52;10.10;99.90
73643;DHT22;61938;48.652;9.292;2023-04-28T00:05:18;10.10;99.90
73643;DHT22;61938;48.652;9.292;2023-04-28T00:07:44;10.00;99.90
73643;DHT22;61938;48.652;9.292;2023-04-28T00:10:10;10.00;99.90
73643;DHT22;61938;48.652;9.292;2023-04-28T00:12:35;10.00;99.90
73643;DHT22;61938;48.652;9.292;2023-04-28T00:15:01;10.00;99.90
73643;DHT22;61938;48.652;9.292;2023-04-28T00:17:28;10.10;99.90
73643;DHT22;61938;48.652;9.292;2023-04-28T00:19:53;10.10;99.90
73643;DHT22;61938;48.652;9.292;2023-04-28T00:22:19;10.10;99.90
73643;DHT22;61938;48.652;9.292;2023-04-28T00:24:44;10.10;99.90
73643;DHT22;61938;48.652;9.292;2023-04-28T00:27:10;10.20;99.90
73643;DHT22;61938;48.652;9.292;2023-04-28T00:29:35;10.20;99.90
73643;DHT22;61938;48.652;9.292;2023-04-28T00:32:03;10.20;99.90
73643;DHT22;61938;48.652;9.292;2023-04-28T00:34:32;10.20;99.90
73643;DHT22;61938;48.652;9.292;2023-04-28T00:36:58;10.20;99.90
73643;DHT22;61938;48.652;9.292;2023-04-28T00:39:23;10.10;99.90
73643;DHT22;61938;48.652;9.292;2023-04-28T00:41:50;10.10;99.90
73643;DHT22;61938;48.652;9.292;2023-04-28T00:44:16;10.20;99.90
73643;DHT22;61938;48.652;9.292;2023-04-28T00:46:42;10.10;99.90
73643;DHT22;61938;48.652;9.292;2023-04-28T00:49:08;10.10;99.90
73643;DHT22;61938;48.652;9.292;2023-04-28T00:51:34;10.10;99.90
73643;DHT22;61938;48.652;9.292;2023-04-28T00:54:00;10.10;99.90
73643;DHT22;61938;48.652;9.292;2023-04-28T00:56:27;10.10;99.90
73643;DHT22;61938;48.652;9.292;2023-04-28T00:58:55;10.20;99.90
73643;DHT22;61938;48.652;9.292;2023-04-28T01:01:21;10.20;99.90
73643;DHT22;61938;48.652;9.292;2023-04-28T01:03:47;10.20;99.90
73643;DHT22;61938;48.652;9.292;2023-04-28T01:06:13;10.50;99.90
73643;DHT22;61938;48.652;9.292;2023-04-28T01:08:38;10.10;99.90
73643;DHT22;61938;48.652;9.292;2023-04-28T01:11:04;10.10;99.90
73643;DHT22;61938;48.652;9.292;2023-04-28T01:13:31;10.10;99.90
73643;DHT22;61938;48.652;9.292;2023-04-28T01:15:56;10.20;99.90
73643;DHT22;61938;48.652;9.292;2023-04-28T01:18:22;10.20;99.90
73643;DHT22;61938;48.652;9.292;2023-04-28T01:20:48;10.20;99.90
73643;DHT22;61938;48.652;9.292;2023-04-28T01:23:15;10.20;99.90
73643;DHT22;61938;48.652;9.292;2023-04-28T01:25:41;10.20;99.90
73643;DHT22;61938;48.652;9.292;2023-04-28T01:28:07;10.20;99.90
73643;DHT22;61938;48.652;9.292;2023-04-28T01:30:33;10.20;99.90
73643;DHT22;61938;48.652;9.292;2023-04-28T01:33:00;10.20;99.90
73643;DHT22;61938;48.652;9.292;2023-04-28T01:35:26;10.20;99.90
73643;DHT22;61938;48.652;9.292;2023-04-28T01:37:51;10.20;99.90
73643;DHT22;61938;48.652;9.292;2023-04-28T01:40:17;10.20;99.90
73643;DHT22;61938;48.652;9.292;2023-04-28T01:42:42;10.20;99.90
73643;DHT22;61938;48.652;9.292;2023-04-28T01:45:08;10.20;99.90
73643;DHT22;61938;48.652;9.292;2023-04-28T01:47:34;10.30;99.90
73643;DHT22;61938;48.652;9.292;2023-04-28T01:50:00;10.30;99.90
73643;DHT22;61938;48.652;9.292;2023-04-28T01:52:26;10.30;99.90
73643;DHT22;61938;48.652;9.292;2023-04-28T01:54:52;10.30;99.90
73643;DHT22;61938;48.652;9.292;2023-04-28T01:57:18;10.40;99.90
73643;DHT22;61938;48.652;9.292;2023-04-28T01:59:44;10.30;99.90
73643;DHT22;61938;48.652;9.292;2023-04-28T02:02:09;10.30;99.90
73643;DHT22;61938;48.652;9.292;2023-04-28T02:04:37;10.30;99.90
73643;DHT22;61938;48.652;9.292;2023-04-28T02:07:03;10.50;99.90
73643;DHT22;61938;48.652;9.292;2023-04-28T02:09:28;10.30;99.90
73643;DHT22;61938;48.652;9.292;2023-04-28T02:11:54;10.30;99.90
73643;DHT22;61938;48.652;9.292;2023-04-28T02:14:19;10.30;99.90
73643;DHT22;61938;48.652;9.292;2023-04-28T02:16:45;10.30;99.90
73643;DHT22;61938;48.652;9.292;2023-04-28T02:19:10;10.40;99.90
73643;DHT22;61938;48.652;9.292;2023-04-28T02:21:36;10.30;99.90
73643;DHT22;61938;48.652;9.292;2023-04-28T02:24:01;10.30;99.90
73643;DHT22;61938;48.652;9.292;2023-04-28T02:26:27;10.30;99.90
73643;DHT22;61938;48.652;9.292;2023-04-28T02:28:52;10.30;99.90
73643;DHT22;61938;48.652;9.292;2023-04-28T02:31:18;10.30;99.90
73643;DHT22;61938;48.652;9.292;2023-04-28T02:33:44;10.40;99.90
73643;DHT22;61938;48.652;9.292;2023-04-28T02:36:09;10.40;99.90
73643;DHT22;61938;48.652;9.292;2023-04-28T02:38:35;10.40;99.90
73643;DHT22;61938;48.652;9.292;2023-04-28T02:41:03;10.40;99.90
73643;DHT22;61938;48.652;9.292;2023-04-28T02:43:30;10.40;99.90
73643;DHT22;61938;48.652;9.292;2023-04-28T02:45:56;10.40;99.90
73643;DHT22;61938;48.652;9.292;2023-04-28T02:48:22;10.40;99.90
73643;DHT22;61938;48.652;9.292;2023-04-28T02:50:48;10.40;99.90
73643;DHT22;61938;48.652;9.292;2023-04-28T02:53:14;10.40;99.90
73643;DHT22;61938;48.652;9.292;2023-04-28T02:55:40;10.50;99.90
73643;DHT22;61938;48.652;9.292;2023-04-28T02:58:05;10.50;99.90
73643;DHT22;61938;48.652;9.292;2023-04-28T03:00:31;10.40;99.90
73643;DHT22;61938;48.652;9.292;2023-04-28T03:02:56;10.50;99.90
73643;DHT22;61938;48.652;9.292;2023-04-28T03:05:22;10.50;99.90
73643;DHT22;61938;48.652;9.292;2023-04-28T03:07:47;10.50;99.90
73643;DHT22;61938;48.652;9.292;2023-04-28T03:10:13;10.50;99.90
73643;DHT22;61938;48.652;9.292;2023-04-28T03:12:38;10.50;99.90
73643;DHT22;61938;48.652;9.292;2023-04-28T03:15:04;10.50;99.90
73643;DHT22;61938;48.652;9.292;2023-04-28T03:17:32;10.40;99.90
73643;DHT22;61938;48.652;9.292;2023-04-28T03:19:58;10.50;99.90
73643;DHT22;61938;48.652;9.292;2023-04-28T03:22:23;10.40;99.90
73643;DHT22;61938;48.652;9.292;2023-04-28T03:24:49;10.40;99.90
73643;DHT22;61938;48.652;9.292;2023-04-28T03:27:14;10.30;99.90
73643;DHT22;61938;48.652;9.292;2023-04-28T03:29:40;10.30;99.90
73643;DHT22;61938;48.652;9.292;2023-04-28T03:32:05;10.30;99.90
73643;DHT22;61938;48.652;9.292;2023-04-28T03:34:31;10.20;99.90
73643;DHT22;61938;48.652;9.292;2023-04-28T03:36:57;10.20;99.90
73643;DHT22;61938;48.652;9.292;2023-04-28T03:39:22;10.20;99.90
73643;DHT22;61938;48.652;9.292;2023-04-28T03:41:48;10.20;99.90
73643;DHT22;61938;48.652;9.292;2023-04-28T03:44:13;10.10;99.90
73643;DHT22;61938;48.652;9.292;2023-04-28T03:46:39;10.10;99.90
73643;DHT22;61938;48.652;9.292;2023-04-28T03:49:05;10.10;99.90
73643;DHT22;61938;48.652;9.292;2023-04-28T03:51:30;10.00;99.90
73643;DHT22;61938;48.652;9.292;2023-04-28T03:53:57;10.00;99.90
73643;DHT22;61938;48.652;9.292;2023-04-28T03:56:23;10.00;99.90
73643;DHT22;61938;48.652;9.292;2023-04-28T03:58:48;10.00;99.90
73643;DHT22;61938;48.652;9.292;2023-04-28T04:01:14;10.00;99.90
73643;DHT22;61938;48.652;9.292;2023-04-28T04:03:40;10.10;99.90
73643;DHT22;61938;48.652;9.292;2023-04-28T04:06:05;10.10;99.90
73643;DHT22;61938;48.652;9.292;2023-04-28T04:08:31;10.10;99.90
73643;DHT22;61938;48.652;9.292;2023-04-28T04:10:57;10.10;99.90
73643;DHT22;61938;48.652;9.292;2023-04-28T04:13:23;10.10;99.90
73643;DHT22;61938;48.652;9.292;2023-04-28T04:15:48;10.10;99.90
73643;DHT22;61938;48.652;9.292;2023-04-28T04:18:15;10.10;99.90
73643;DHT22;61938;48.652;9.292;2023-04-28T04:20:40;10.10;99.90
73643;DHT22;61938;48.652;9.292;2023-04-28T04:23:06;10.10;99.90
73643;DHT22;61938;48.652;9.292;2023-04-28T04:25:32;10.10;99.90
73643;DHT22;61938;48.652;9.292;2023-04-28T04:27:58;10.10;99.90
73643;DHT22;61938;48.652;9.292;2023-04-28T04:30:23;10.10;99.90
73643;DHT22;61938;48.652;9.292;2023-04-28T04:32:49;10.20;99.90
73643;DHT22;61938;48.652;9.292;2023-04-28T04:35:15;10.20;99.90
73643;DHT22;61938;48.652;9.292;2023-04-28T04:37:40;10.20;99.90
73643;DHT22;61938;48.652;9.292;2023-04-28T04:40:06;10.20;99.90
73643;DHT22;61938;48.652;9.292;2023-04-28T04:42:32;10.20;99.90
73643;DHT22;61938;48.652;9.292;2023-04-28T04:44:58;10.30;99.90
73643;DHT22;61938;48.652;9.292;2023-04-28T04:47:23;10.30;99.90
73643;DHT22;61938;48.652;9.292;2023-04-28T04:49:50;10.30;99.90
73643;DHT22;61938;48.652;9.292;2023-04-28T04:52:16;10.30;99.90
73643;DHT22;61938;48.652;9.292;2023-04-28T04:54:42;10.30;99.90
73643;DHT22;61938;48.652;9.292;2023-04-28T04:57:07;10.30;99.90
73643;DHT22;61938;48.652;9.292;2023-04-28T04:59:33;10.30;99.90
73643;DHT22;61938;48.652;9.292;2023-04-28T05:01:58;10.30;99.90
73643;DHT22;61938;48.652;9.292;2023-04-28T05:04:24;10.30;99.90
73643;DHT22;61938;48.652;9.292;2023-04-28T05:06:49;10.40;99.90
73643;DHT22;61938;48.652;9.292;2023-04-28T05:09:15;10.40;99.90
73643;DHT22;61938;48.652;9.292;2023-04-28T05:11:41;10.40;99.90
73643;DHT22;61938;48.652;9.292;2023-04-28T05:14:06;10.40;99.90
73643;DHT22;61938;48.652;9.292;2023-04-28T05:16:32;10.40;99.90
73643;DHT22;61938;48.652;9.292;2023-04-28T05:18:58;10.40;99.90
73643;DHT22;61938;48.652;9.292;2023-04-28T05:21:23;10.40;99.90
73643;DHT22;61938;48.652;9.292;2023-04-28T05:23:49;10.40;99.90
73643;DHT22;61938;48.652;9.292;2023-04-28T05:26:15;10.50;99.90
73643;DHT22;61938;48.652;9.292;2023-04-28T05:28:41;10.50;99.90
73643;DHT22;61938;48.652;9.292;2023-04-28T05:31:06;10.60;99.90
73643;DHT22;61938;48.652;9.292;2023-04-28T05:33:32;10.60;99.90
73643;DHT22;61938;48.652;9.292;2023-04-28T05:35:58;10.60;99.90
73643;DHT22;61938;48.652;9.292;2023-04-28T05:38:23;10.60;99.90
73643;DHT22;61938;48.652;9.292;2023-04-28T05:40:49;10.60;99.90
73643;DHT22;61938;48.652;9.292;2023-04-28T05:43:15;10.60;99.90
73643;DHT22;61938;48.652;9.292;2023-04-28T05:45:41;10.60;99.90
73643;DHT22;61938;48.652;9.292;2023-04-28T05:48:06;10.70;99.90
73643;DHT22;61938;48.652;9.292;2023-04-28T05:50:32;10.70;99.90
73643;DHT22;61938;48.652;9.292;2023-04-28T05:52:57;10.70;99.90
73643;DHT22;61938;48.652;9.292;2023-04-28T05:55:23;10.70;99.90
73643;DHT22;61938;48.652;9.292;2023-04-28T05:57:48;10.70;99.90
73643;DHT22;61938;48.652;9.292;2023-04-28T06:00:14;10.70;99.90
73643;DHT22;61938;48.652;9.292;2023-04-28T06:02:40;10.70;99.90
73643;DHT22;61938;48.652;9.292;2023-04-28T06:05:06;10.70;99.90
73643;DHT22;61938;48.652;9.292;2023-04-28T06:07:32;10.70;99.90
73643;DHT22;61938;48.652;9.292;2023-04-28T06:09:57;10.70;99.90
73643;DHT22;61938;48.652;9.292;2023-04-28T06:12:23;10.80;99.90
73643;DHT22;61938;48.652;9.292;2023-04-28T06:14:48;10.70;99.90
73643;DHT22;61938;48.652;9.292;2023-04-28T06:17:13;10.70;99.90
73643;DHT22;61938;48.652;9.292;2023-04-28T06:19:39;10.70;99.90
73643;DHT22;61938;48.652;9.292;2023-04-28T06:22:05;10.70;99.90
73643;DHT22;61938;48.652;9.292;2023-04-28T06:24:30;10.70;99.90
73643;DHT22;61938;48.652;9.292;2023-04-28T06:26:56;10.70;99.90
73643;DHT22;61938;48.652;9.292;2023-04-28T06:29:22;10.70;99.90
73643;DHT22;61938;48.652;9.292;2023-04-28T06:31:48;10.70;99.90
73643;DHT22;61938;48.652;9.292;2023-04-28T06:34:14;10.70;99.90
73643;DHT22;61938;48.652;9.292;2023-04-28T06:36:39;10.80;99.90
73643;DHT22;61938;48.652;9.292;2023-04-28T06:39:05;10.80;99.90
73643;DHT22;61938;48.652;9.292;2023-04-28T06:41:30;10.80;99.90
73643;DHT22;61938;48.652;9.292;2023-04-28T06:43:56;10.80;99.90
73643;DHT22;61938;48.652;9.292;2023-04-28T06:46:22;10.80;99.90
73643;DHT22;61938;48.652;9.292;2023-04-28T06:48:47;10.80;99.90
73643;DHT22;61938;48.652;9.292;2023-04-28T06:51:13;10.90;99.90
73643;DHT22;61938;48.652;9.292;2023-04-28T06:53:39;10.90;99.90
73643;DHT22;61938;48.652;9.292;2023-04-28T06:56:05;10.90;99.90
73643;DHT22;61938;48.652;9.292;2023-04-28T06:58:31;10.90;99.90
73643;DHT22;61938;48.652;9.292;2023-04-28T07:00:56;10.90;99.90
73643;DHT22;61938;48.652;9.292;2023-04-28T07:03:22;10.90;99.90
73643;DHT22;61938;48.652;9.292;2023-04-28T07:05:47;10.90;99.90
73643;DHT22;61938;48.652;9.292;2023-04-28T07:08:13;10.90;99.90
73643;DHT22;61938;48.652;9.292;2023-04-28T07:10:38;10.90;99.90
73643;DHT22;61938;48.652;9.292;2023-04-28T07:13:04;11.00;99.90
73643;DHT22;61938;48.652;9.292;2023-04-28T07:15:30;11.00;99.90
73643;DHT22;61938;48.652;9.292;2023-04-28T07:17:56;11.00;99.90
73643;DHT22;61938;48.652;9.292;2023-04-28T07:20:21;11.10;99.90
73643;DHT22;61938;48.652;9.292;2023-04-28T07:22:47;11.20;99.90
73643;DHT22;61938;48.652;9.292;2023-04-28T07:25:12;11.20;99.90
73643;DHT22;61938;48.652;9.292;2023-04-28T07:27:38;11.30;99.90
73643;DHT22;61938;48.652;9.292;2023-04-28T07:30:04;11.40;99.90
73643;DHT22;61938;48.652;9.292;2023-04-28T07:32:29;11.50;99.90
73643;DHT22;61938;48.652;9.292;2023-04-28T07:34:55;11.50;99.90
73643;DHT22;61938;48.652;9.292;2023-04-28T07:37:21;11.50;99.90
73643;DHT22;61938;48.652;9.292;2023-04-28T07:39:46;11.60;99.90
73643;DHT22;61938;48.652;9.292;2023-04-28T07:42:12;11.60;99.90
73643;DHT22;61938;48.652;9.292;2023-04-28T07:44:37;11.60;99.90
73643;DHT22;61938;48.652;9.292;2023-04-28T07:47:03;11.60;99.90
73643;DHT22;61938;48.652;9.292;2023-04-28T07:49:29;11.60;99.90
73643;DHT22;61938;48.652;9.292;2023-04-28T07:51:55;11.60;99.90
73643;DHT22;61938;48.652;9.292;2023-04-28T07:54:21;11.70;99.90
73643;DHT22;61938;48.652;9.292;2023-04-28T07:56:46;11.70;99.90
73643;DHT22;61938;48.652;9.292;2023-04-28T07:59:12;11.60;99.90
73643;DHT22;61938;48.652;9.292;2023-04-28T08:01:38;11.60;99.90
73643;DHT22;61938;48.652;9.292;2023-04-28T08:04:04;11.60;99.90
73643;DHT22;61938;48.652;9.292;2023-04-28T08:06:29;11.70;99.90
73643;DHT22;61938;48.652;9.292;2023-04-28T08:08:55;11.70;99.90
73643;DHT22;61938;48.652;9.292;2023-04-28T08:11:21;11.80;99.90
73643;DHT22;61938;48.652;9.292;2023-04-28T08:13:47;11.80;99.90
73643;DHT22;61938;48.652;9.292;2023-04-28T08:16:13;11.80;99.90
73643;DHT22;61938;48.652;9.292;2023-04-28T08:18:39;11.80;99.90
73643;DHT22;61938;48.652;9.292;2023-04-28T08:21:05;11.80;99.90
73643;DHT22;61938;48.652;9.292;2023-04-28T08:23:30;11.80;99.90
73643;DHT22;61938;48.652;9.292;2023-04-28T08:25:56;11.90;99.90
73643;DHT22;61938;48.652;9.292;2023-04-28T08:28:22;11.90;99.90
73643;DHT22;61938;48.652;9.292;2023-04-28T08:30:48;11.90;99.90
73643;DHT22;61938;48.652;9.292;2023-04-28T08:33:13;12.00;99.90
73643;DHT22;61938;48.652;9.292;2023-04-28T08:35:39;12.00;99.90
73643;DHT22;61938;48.652;9.292;2023-04-28T08:38:05;12.00;99.90
73643;DHT22;61938;48.652;9.292;2023-04-28T08:40:31;12.00;99.90
73643;DHT22;61938;48.652;9.292;2023-04-28T08:42:58;12.10;99.90
73643;DHT22;61938;48.652;9.292;2023-04-28T08:45:24;12.10;99.90
73643;DHT22;61938;48.652;9.292;2023-04-28T08:47:50;12.10;99.90
73643;DHT22;61938;48.652;9.292;2023-04-28T08:50:20;12.20;99.90
73643;DHT22;61938;48.652;9.292;2023-04-28T08:52:47;12.20;99.90
73643;DHT22;61938;48.652;9.292;2023-04-28T08:55:13;12.30;99.90
73643;DHT22;61938;48.652;9.292;2023-04-28T08:57:48;12.40;99.90
73643;DHT22;61938;48.652;9.292;2023-04-28T09:00:13;12.50;99.90
73643;DHT22;61938;48.652;9.292;2023-04-28T09:02:39;12.60;99.90
73643;DHT22;61938;48.652;9.292;2023-04-28T09:05:10;12.60;99.90
73643;DHT22;61938;48.652;9.292;2023-04-28T09:07:36;12.70;99.90
73643;DHT22;61938;48.652;9.292;2023-04-28T09:10:23;12.70;99.90
73643;DHT22;61938;48.652;9.292;2023-04-28T09:12:53;12.80;99.90
73643;DHT22;61938;48.652;9.292;2023-04-28T09:15:27;12.80;99.90
73643;DHT22;61938;48.652;9.292;2023-04-28T09:17:53;12.80;99.90
73643;DHT22;61938;48.652;9.292;2023-04-28T09:20:23;12.80;99.90
73643;DHT22;61938;48.652;9.292;2023-04-28T09:22:50;12.80;99.90
73643;DHT22;61938;48.652;9.292;2023-04-28T09:25:17;12.90;99.90
73643;DHT22;61938;48.652;9.292;2023-04-28T09:27:42;12.90;99.90
73643;DHT22;61938;48.652;9.292;2023-04-28T09:30:08;12.90;99.90
73643;DHT22;61938;48.652;9.292;2023-04-28T09:32:34;13.00;99.90
73643;DHT22;61938;48.652;9.292;2023-04-28T09:35:00;13.10;99.90
73643;DHT22;61938;48.652;9.292;2023-04-28T09:37:27;13.20;99.90
73643;DHT22;61938;48.652;9.292;2023-04-28T09:40:01;13.30;99.90
73643;DHT22;61938;48.652;9.292;2023-04-28T09:42:32;13.30;99.90
73643;DHT22;61938;48.652;9.292;2023-04-28T09:44:59;13.40;99.90
73643;DHT22;61938;48.652;9.292;2023-04-28T09:47:27;13.50;99.90
73643;DHT22;61938;48.652;9.292;2023-04-28T09:49:57;13.60;99.90
73643;DHT22;61938;48.652;9.292;2023-04-28T09:52:23;13.70;99.90
73643;DHT22;61938;48.652;9.292;2023-04-28T09:54:50;13.80;99.90
73643;DHT22;61938;48.652;9.292;2023-04-28T09:57:17;13.90;99.90
73643;DHT22;61938;48.652;9.292;2023-04-28T09:59:48;14.10;99.90
73643;DHT22;61938;48.652;9.292;2023-04-28T10:02:18;14.20;99.90
73643;DHT22;61938;48.652;9.292;2023-04-28T10:04:46;14.20;99.90
73643;DHT22;61938;48.652;9.292;2023-04-28T10:07:12;14.30;99.90
73643;DHT22;61938;48.652;9.292;2023-04-28T10:09:42;14.40;99.90
73643;DHT22;61938;48.652;9.292;2023-04-28T10:12:19;14.60;99.90
73643;DHT22;61938;48.652;9.292;2023-04-28T10:14:45;14.80;99.90
73643;DHT22;61938;48.652;9.292;2023-04-28T10:17:16;14.90;99.90
73643;DHT22;61938;48.652;9.292;2023-04-28T10:19:46;15.00;99.90
73643;DHT22;61938;48.652;9.292;2023-04-28T10:22:37;15.00;99.90
73643;DHT22;61938;48.652;9.292;2023-04-28T10:27:45;15.00;99.90
73643;DHT22;61938;48.652;9.292;2023-04-28T10:30:11;15.10;99.90
73643;DHT22;61938;48.652;9.292;2023-04-28T10:32:37;15.10;99.90
73643;DHT22;61938;48.652;9.292;2023-04-28T10:38:11;15.10;99.90
73643;DHT22;61938;48.652;9.292;2023-04-28T10:40:41;15.20;99.90
73643;DHT22;61938;48.652;9.292;2023-04-28T10:43:08;15.30;99.90
73643;DHT22;61938;48.652;9.292;2023-04-28T10:48:54;15.20;99.90
73643;DHT22;61938;48.652;9.292;2023-04-28T10:56:07;15.30;99.90
73643;DHT22;61938;48.652;9.292;2023-04-28T10:58:33;15.40;99.90
73643;DHT22;61938;48.652;9.292;2023-04-28T11:06:25;15.70;99.90
73643;DHT22;61938;48.652;9.292;2023-04-28T11:08:56;15.80;99.90
73643;DHT22;61938;48.652;9.292;2023-04-28T11:11:32;15.90;99.90
73643;DHT22;61938;48.652;9.292;2023-04-28T11:19:17;16.10;99.90
73643;DHT22;61938;48.652;9.292;2023-04-28T11:21:44;16.20;99.90
73643;DHT22;61938;48.652;9.292;2023-04-28T11:24:11;16.30;99.90
73643;DHT22;61938;48.652;9.292;2023-04-28T11:26:37;16.30;99.90
73643;DHT22;61938;48.652;9.292;2023-04-28T11:29:03;16.20;99.90
73643;DHT22;61938;48.652;9.292;2023-04-28T11:31:29;16.20;99.90
73643;DHT22;61938;48.652;9.292;2023-04-28T11:36:33;16.10;99.90
73643;DHT22;61938;48.652;9.292;2023-04-28T11:39:01;16.10;99.90
73643;DHT22;61938;48.652;9.292;2023-04-28T11:41:30;16.00;99.90
73643;DHT22;61938;48.652;9.292;2023-04-28T11:43:56;16.00;99.90
73643;DHT22;61938;48.652;9.292;2023-04-28T11:46:23;16.10;99.90
73643;DHT22;61938;48.652;9.292;2023-04-28T11:48:59;16.10;99.90
73643;DHT22;61938;48.652;9.292;2023-04-28T11:51:29;16.20;99.90
73643;DHT22;61938;48.652;9.292;2023-04-28T11:53:56;16.30;99.90
73643;DHT22;61938;48.652;9.292;2023-04-28T11:56:22;16.40;99.90
73643;DHT22;61938;48.652;9.292;2023-04-28T11:58:59;16.40;99.90
73643;DHT22;61938;48.652;9.292;2023-04-28T12:01:25;16.50;99.90
73643;DHT22;61938;48.652;9.292;2023-04-28T12:03:50;16.70;99.90
73643;DHT22;61938;48.652;9.292;2023-04-28T12:06:17;16.60;99.90
73643;DHT22;61938;48.652;9.292;2023-04-28T12:08:46;16.70;99.90
73643;DHT22;61938;48.652;9.292;2023-04-28T12:11:12;16.70;99.90
73643;DHT22;61938;48.652;9.292;2023-04-28T12:13:39;16.70;99.90
73643;DHT22;61938;48.652;9.292;2023-04-28T12:16:06;16.70;99.90
73643;DHT22;61938;48.652;9.292;2023-04-28T12:18:32;16.60;99.90
73643;DHT22;61938;48.652;9.292;2023-04-28T12:20:58;16.60;99.90
73643;DHT22;61938;48.652;9.292;2023-04-28T12:23:34;16.60;99.90
73643;DHT22;61938;48.652;9.292;2023-04-28T12:26:01;16.60;99.90
73643;DHT22;61938;48.652;9.292;2023-04-28T12:28:40;16.50;99.90
73643;DHT22;61938;48.652;9.292;2023-04-28T12:31:07;16.40;99.90
73643;DHT22;61938;48.652;9.292;2023-04-28T12:33:34;16.40;99.90
73643;DHT22;61938;48.652;9.292;2023-04-28T12:36:04;16.30;99.90
73643;DHT22;61938;48.652;9.292;2023-04-28T12:38:32;16.30;99.90
73643;DHT22;61938;48.652;9.292;2023-04-28T12:40:58;16.40;99.90
73643;DHT22;61938;48.652;9.292;2023-04-28T12:43:24;16.40;99.90
73643;DHT22;61938;48.652;9.292;2023-04-28T12:45:52;16.50;99.90
73643;DHT22;61938;48.652;9.292;2023-04-28T12:48:18;16.60;99.90
73643;DHT22;61938;48.652;9.292;2023-04-28T12:50:44;16.80;99.90
73643;DHT22;61938;48.652;9.292;2023-04-28T12:53:10;17.10;99.90
73643;DHT22;61938;48.652;9.292;2023-04-28T12:55:36;17.30;99.90
73643;DHT22;61938;48.652;9.292;2023-04-28T12:58:04;17.40;99.90
73643;DHT22;61938;48.652;9.292;2023-04-28T13:00:29;17.50;99.90
73643;DHT22;61938;48.652;9.292;2023-04-28T13:02:55;17.50;99.90
73643;DHT22;61938;48.652;9.292;2023-04-28T13:05:20;17.50;99.90
73643;DHT22;61938;48.652;9.292;2023-04-28T13:07:46;17.50;99.90
73643;DHT22;61938;48.652;9.292;2023-04-28T13:10:13;17.50;99.90
73643;DHT22;61938;48.652;9.292;2023-04-28T13:12:39;17.60;99.90
73643;DHT22;61938;48.652;9.292;2023-04-28T13:15:06;17.70;99.90
73643;DHT22;61938;48.652;9.292;2023-04-28T13:17:31;17.80;99.90
73643;DHT22;61938;48.652;9.292;2023-04-28T13:19:58;17.60;99.90
73643;DHT22;61938;48.652;9.292;2023-04-28T13:22:25;17.60;99.90
73643;DHT22;61938;48.652;9.292;2023-04-28T13:24:51;17.60;99.90
73643;DHT22;61938;48.652;9.292;2023-04-28T13:27:16;17.50;99.90
73643;DHT22;61938;48.652;9.292;2023-04-28T13:29:43;17.40;99.90
73643;DHT22;61938;48.652;9.292;2023-04-28T13:32:08;17.50;99.90
73643;DHT22;61938;48.652;9.292;2023-04-28T13:34:34;17.50;99.90
73643;DHT22;61938;48.652;9.292;2023-04-28T13:37:01;17.60;99.90
73643;DHT22;61938;48.652;9.292;2023-04-28T13:39:27;17.60;99.90
73643;DHT22;61938;48.652;9.292;2023-04-28T13:41:53;17.60;99.90
73643;DHT22;61938;48.652;9.292;2023-04-28T13:44:18;17.60;99.90
73643;DHT22;61938;48.652;9.292;2023-04-28T13:46:44;17.60;99.90
73643;DHT22;61938;48.652;9.292;2023-04-28T13:49:10;17.60;99.90
73643;DHT22;61938;48.652;9.292;2023-04-28T13:51:37;17.50;99.90
73643;DHT22;61938;48.652;9.292;2023-04-28T13:54:03;17.40;99.90
73643;DHT22;61938;48.652;9.292;2023-04-28T13:56:30;17.30;99.90
73643;DHT22;61938;48.652;9.292;2023-04-28T13:58:56;17.20;99.90
73643;DHT22;61938;48.652;9.292;2023-04-28T14:01:22;17.20;99.90
73643;DHT22;61938;48.652;9.292;2023-04-28T14:03:47;17.20;99.90
73643;DHT22;61938;48.652;9.292;2023-04-28T14:06:13;17.20;99.90
73643;DHT22;61938;48.652;9.292;2023-04-28T14:08:38;17.20;99.90
73643;DHT22;61938;48.652;9.292;2023-04-28T14:11:04;17.10;99.90
73643;DHT22;61938;48.652;9.292;2023-04-28T14:13:30;17.10;99.90
73643;DHT22;61938;48.652;9.292;2023-04-28T14:15:55;17.00;99.90
73643;DHT22;61938;48.652;9.292;2023-04-28T14:18:22;17.00;99.90
73643;DHT22;61938;48.652;9.292;2023-04-28T14:20:47;17.00;99.90
73643;DHT22;61938;48.652;9.292;2023-04-28T14:23:14;17.00;99.90
73643;DHT22;61938;48.652;9.292;2023-04-28T14:25:39;16.90;99.90
73643;DHT22;61938;48.652;9.292;2023-04-28T14:28:05;16.90;99.90
73643;DHT22;61938;48.652;9.292;2023-04-28T14:30:31;16.80;99.90
73643;DHT22;61938;48.652;9.292;2023-04-28T14:32:56;16.70;99.90
73643;DHT22;61938;48.652;9.292;2023-04-28T14:35:23;16.70;99.90
73643;DHT22;61938;48.652;9.292;2023-04-28T14:37:51;16.60;99.90
73643;DHT22;61938;48.652;9.292;2023-04-28T14:40:17;16.60;99.90
73643;DHT22;61938;48.652;9.292;2023-04-28T14:42:42;16.50;99.90
73643;DHT22;61938;48.652;9.292;2023-04-28T14:45:09;16.50;99.90
73643;DHT22;61938;48.652;9.292;2023-04-28T14:47:36;16.40;99.90
73643;DHT22;61938;48.652;9.292;2023-04-28T14:50:03;16.40;99.90
73643;DHT22;61938;48.652;9.292;2023-04-28T14:52:29;16.30;99.90
73643;DHT22;61938;48.652;9.292;2023-04-28T14:54:56;16.20;99.90
73643;DHT22;61938;48.652;9.292;2023-04-28T14:57:24;16.30;99.90
73643;DHT22;61938;48.652;9.292;2023-04-28T14:59:50;16.40;99.90
73643;DHT22;61938;48.652;9.292;2023-04-28T15:02:16;16.30;99.90
73643;DHT22;61938;48.652;9.292;2023-04-28T15:04:42;16.20;99.90
73643;DHT22;61938;48.652;9.292;2023-04-28T15:07:08;16.10;99.90
73643;DHT22;61938;48.652;9.292;2023-04-28T15:09:34;16.00;99.90
73643;DHT22;61938;48.652;9.292;2023-04-28T15:12:01;16.00;99.90
73643;DHT22;61938;48.652;9.292;2023-04-28T15:14:27;16.00;99.90
73643;DHT22;61938;48.652;9.292;2023-04-28T15:16:53;15.90;99.90
73643;DHT22;61938;48.652;9.292;2023-04-28T15:19:18;15.80;99.90
73643;DHT22;61938;48.652;9.292;2023-04-28T15:21:45;15.80;99.90
73643;DHT22;61938;48.652;9.292;2023-04-28T15:24:10;15.70;99.90
73643;DHT22;61938;48.652;9.292;2023-04-28T15:26:36;15.70;99.90
73643;DHT22;61938;48.652;9.292;2023-04-28T15:29:02;15.70;99.90
73643;DHT22;61938;48.652;9.292;2023-04-28T15:31:27;15.60;99.90
73643;DHT22;61938;48.652;9.292;2023-04-28T15:33:53;15.60;99.90
73643;DHT22;61938;48.652;9.292;2023-04-28T15:36:19;15.60;99.90
73643;DHT22;61938;48.652;9.292;2023-04-28T15:38:46;15.60;99.90
73643;DHT22;61938;48.652;9.292;2023-04-28T15:41:12;15.50;99.90
73643;DHT22;61938;48.652;9.292;2023-04-28T15:43:39;15.50;99.90
73643;DHT22;61938;48.652;9.292;2023-04-28T15:46:05;15.50;99.90
73643;DHT22;61938;48.652;9.292;2023-04-28T15:48:38;15.50;99.90
73643;DHT22;61938;48.652;9.292;2023-04-28T15:51:04;15.40;99.90